Time;durP1;ratioP1;P1;durP2;ratioP2;P2;SDS_P1;SDS_P2;PMS_P1;PMS_P2;Temp;Humidity;BMP_temperature;BMP_pressure;BME280_temperature;BME280_humidity;BME280_pressure;Samples;Min_cycle;Max_cycle;Signal;HPM_P1;HPM_P2
2023/10/11 00:00:40;;;;;;;0.10;0.10;;;;;;;19.39;63.79;100304.09;7359646;19;20010;-61
2023/10/11 00:03:17;;;;;;;0.10;0.10;;;;;;;19.37;64.62;100299.88;7359895;19;20347;-60
2023/10/11 00:05:45;;;;;;;0.10;0.10;;;;;;;19.34;66.10;100285.00;7355524;19;20022;-60
2023/10/11 00:08:13;;;;;;;0.00;0.00;;;;;;;19.29;67.06;100284.47;7360505;19;20934;-59
2023/10/11 00:10:45;;;;;;;0.10;0.10;;;;;;;19.24;67.10;100278.63;7358668;19;20014;-61
2023/10/11 00:13:12;;;;;;;0.10;0.10;;;;;;;19.16;67.62;100270.34;7355507;19;20014;-61
2023/10/11 00:15:38;;;;;;;0.10;0.10;;;;;;;19.06;68.74;100269.22;7353466;19;20018;-61
2023/10/11 00:18:03;;;;;;;0.10;0.10;;;;;;;18.97;69.01;100259.25;7361696;19;20016;-61
2023/10/11 00:20:47;;;;;;;0.00;0.00;;;;;;;18.87;69.24;100251.06;7353340;19;20047;-61
2023/10/11 00:23:16;;;;;;;0.10;0.10;;;;;;;18.79;70.07;100255.97;7357354;19;20038;-61
2023/10/11 00:25:42;;;;;;;0.10;0.10;;;;;;;18.69;70.43;100271.59;7368580;19;20019;-60
2023/10/11 00:28:08;;;;;;;0.10;0.10;;;;;;;18.60;69.70;100278.28;7362755;19;20002;-60
2023/10/11 00:30:38;;;;;;;0.00;0.00;;;;;;;18.57;69.55;100288.22;7369955;19;20071;-60
2023/10/11 00:33:10;;;;;;;0.10;0.10;;;;;;;18.49;70.86;100295.75;7360245;19;20010;-61
2023/10/11 00:35:49;;;;;;;0.10;0.10;;;;;;;18.39;69.35;100280.44;7369049;19;20623;-61
2023/10/11 00:38:19;;;;;;;0.10;0.10;;;;;;;18.37;68.42;100292.09;7362635;19;20014;-61
2023/10/11 00:41:39;;;;;;;0.10;0.10;;;;;;;18.19;71.40;100267.63;7367633;19;20513;-61
2023/10/11 00:43:41;;;;;;;0.03;0.03;;;;;;;18.30;71.00;100296.06;7362512;19;20018;-61
2023/10/11 00:46:13;;;;;;;0.10;0.10;;;;;;;18.25;71.79;100288.41;7366041;19;20003;-61
2023/10/11 00:51:30;;;;;;;0.10;0.10;;;;;;;18.19;70.84;100286.13;7368712;19;20499;-61
2023/10/11 00:53:58;;;;;;;0.10;0.10;;;;;;;18.15;71.88;100292.56;7359463;19;20014;-61
2023/10/11 00:56:26;;;;;;;0.00;0.00;;;;;;;18.12;71.64;100282.16;7365470;19;20021;-61
2023/10/11 00:58:52;;;;;;;0.10;0.10;;;;;;;18.09;72.71;100292.91;7367877;19;20542;-60
2023/10/11 01:01:18;;;;;;;0.10;0.10;;;;;;;18.02;73.10;100288.94;7339922;19;20010;-61
2023/10/11 01:03:44;;;;;;;0.10;0.10;;;;;;;17.98;72.73;100268.94;7351231;19;20011;-61
2023/10/11 01:06:10;;;;;;;0.10;0.10;;;;;;;18.03;72.81;100277.41;7364742;19;20376;-61
2023/10/11 01:08:40;;;;;;;0.10;0.10;;;;;;;17.95;72.68;100269.13;7365409;19;20022;-61
2023/10/11 01:11:13;;;;;;;0.10;0.10;;;;;;;18.01;73.58;100295.16;7368120;19;20011;-61
2023/10/11 01:13:40;;;;;;;0.10;0.10;;;;;;;18.01;72.46;100289.88;7355006;19;20522;-62
2023/10/11 01:16:14;;;;;;;0.00;0.00;;;;;;;18.01;72.86;100284.59;7364624;19;20475;-61
2023/10/11 01:18:40;;;;;;;0.10;0.10;;;;;;;17.98;73.66;100297.97;7371286;19;20014;-61
2023/10/11 01:21:07;;;;;;;0.10;0.10;;;;;;;17.98;72.39;100297.97;7365028;19;20011;-61
2023/10/11 01:23:34;;;;;;;0.00;0.00;;;;;;;17.84;73.54;100273.25;7364917;19;20485;-62
2023/10/11 01:26:07;;;;;;;0.10;0.10;;;;;;;17.97;73.11;100288.38;7367632;19;20018;-62
2023/10/11 01:28:36;;;;;;;0.10;0.10;;;;;;;17.92;73.64;100264.84;7344838;19;20011;-61
2023/10/11 01:31:08;;;;;;;0.10;0.10;;;;;;;17.89;73.76;100258.00;7368324;19;20046;-61
2023/10/11 01:33:41;;;;;;;0.10;0.10;;;;;;;17.91;72.71;100257.03;7360135;19;20122;-61
2023/10/11 01:36:23;;;;;;;0.00;0.00;;;;;;;18.00;72.76;100267.06;7363248;19;20018;-62
2023/10/11 01:38:48;;;;;;;0.10;0.10;;;;;;;17.97;73.11;100272.50;7366822;19;20621;-61
2023/10/11 01:41:26;;;;;;;0.10;0.10;;;;;;;17.97;73.55;100251.38;7359517;19;20030;-62
2023/10/11 01:43:53;;;;;;;0.10;0.10;;;;;;;17.96;73.48;100249.69;7361993;19;20483;-62
2023/10/11 01:46:35;;;;;;;0.10;0.10;;;;;;;17.98;73.48;100259.19;7370702;19;20034;-62
2023/10/11 01:49:01;;;;;;;0.10;0.10;;;;;;;17.96;73.69;100261.09;7367756;19;21351;-62
2023/10/11 01:51:27;;;;;;;0.10;0.10;;;;;;;17.93;73.67;100263.06;7358897;19;20015;-62
2023/10/11 01:54:09;;;;;;;0.10;0.10;;;;;;;18.00;72.97;100256.50;7359220;19;20028;-62
2023/10/11 01:56:34;;;;;;;0.10;0.10;;;;;;;17.95;74.00;100248.00;7364595;19;20053;-62
2023/10/11 01:59:01;;;;;;;0.10;0.10;;;;;;;17.89;74.05;100236.84;7358616;19;20486;-62
2023/10/11 02:01:30;;;;;;;0.10;0.10;;;;;;;17.94;73.89;100272.69;7365088;19;20020;-62
2023/10/11 02:03:59;;;;;;;0.10;0.10;;;;;;;17.94;73.66;100260.31;7367754;19;20379;-62
2023/10/11 02:06:26;;;;;;;0.10;0.10;;;;;;;17.73;73.42;100217.56;7366845;19;20636;-62
2023/10/11 02:08:52;;;;;;;0.10;0.10;;;;;;;17.87;73.56;100251.94;7369996;19;20094;-62
2023/10/11 02:11:24;;;;;;;0.10;0.10;;;;;;;17.84;73.29;100246.84;7365089;19;20082;-62
2023/10/11 02:13:50;;;;;;;0.10;0.10;;;;;;;17.86;73.48;100252.88;7366354;19;20023;-62
2023/10/11 02:16:16;;;;;;;0.10;0.10;;;;;;;17.84;74.50;100267.09;7372211;19;20009;-62
2023/10/11 02:18:41;;;;;;;0.10;0.10;;;;;;;17.81;74.01;100262.88;7368587;19;20007;-62
2023/10/11 02:21:07;;;;;;;0.10;0.10;;;;;;;17.80;73.79;100258.53;7360948;19;20033;-61
2023/10/11 02:23:42;;;;;;;0.05;0.05;;;;;;;17.81;73.63;100256.75;7365388;19;20006;-61
2023/10/11 02:26:12;;;;;;;0.05;0.05;;;;;;;17.77;74.74;100255.22;7362034;19;20102;-61
2023/10/11 02:28:41;;;;;;;0.03;0.03;;;;;;;17.75;74.18;100263.25;7363310;19;20010;-61
2023/10/11 02:31:07;;;;;;;0.10;0.10;;;;;;;17.73;73.90;100251.03;7367840;19;20014;-62
2023/10/11 02:33:33;;;;;;;0.10;0.10;;;;;;;17.64;73.47;100234.78;7371225;19;20046;-61
2023/10/11 02:36:09;;;;;;;0.10;0.10;;;;;;;17.70;74.59;100244.13;7363834;19;20653;-61
2023/10/11 02:38:47;;;;;;;0.10;0.10;;;;;;;17.66;74.46;100239.97;7366319;19;20018;-61
2023/10/11 02:41:37;;;;;;;0.10;0.10;;;;;;;17.60;74.92;100243.00;7348904;19;20011;-60
2023/10/11 02:44:02;;;;;;;0.10;0.10;;;;;;;17.59;74.48;100233.38;7361312;19;20042;-60
2023/10/11 02:46:28;;;;;;;0.08;0.08;;;;;;;17.57;74.29;100214.97;7366612;19;20003;-60
2023/10/11 02:49:39;;;;;;;0.10;0.10;;;;;;;17.54;75.21;100222.25;7365718;19;20900;-60
2023/10/11 02:51:51;;;;;;;0.05;0.05;;;;;;;17.51;75.16;100211.84;7365439;19;20014;-60
2023/10/11 02:54:17;;;;;;;0.10;0.10;;;;;;;17.47;75.15;100220.88;7363734;19;20058;-60
2023/10/11 02:56:48;;;;;;;0.00;0.00;;;;;;;17.45;74.89;100218.34;7367963;19;20089;-60
2023/10/11 02:59:23;;;;;;;0.10;0.10;;;;;;;17.45;76.20;100217.50;7361583;19;21135;-60
2023/10/11 03:02:01;;;;;;;0.10;0.10;;;;;;;17.41;76.03;100216.81;7363543;19;20691;-59
2023/10/11 03:04:32;;;;;;;0.10;0.10;;;;;;;17.40;75.84;100209.00;7362230;19;20654;-60
2023/10/11 03:07:00;;;;;;;0.10;0.10;;;;;;;17.38;75.10;100207.28;7368880;19;20019;-60
2023/10/11 03:09:27;;;;;;;0.00;0.00;;;;;;;17.37;76.20;100213.50;7362597;19;20018;-60
2023/10/11 03:11:55;;;;;;;0.10;0.10;;;;;;;17.37;76.34;100204.72;7367083;19;20090;-60
2023/10/11 03:14:21;;;;;;;0.10;0.10;;;;;;;17.36;76.38;100201.25;7361328;19;20395;-61
2023/10/11 03:16:55;;;;;;;0.10;0.10;;;;;;;17.36;75.95;100208.31;7331102;19;20082;-60
2023/10/11 03:19:21;;;;;;;0.08;0.08;;;;;;;17.36;75.78;100203.88;7365772;19;20003;-61
2023/10/11 03:21:53;;;;;;;0.10;0.10;;;;;;;17.36;76.41;100197.75;7365879;19;20340;-61
2023/10/11 03:24:19;;;;;;;0.10;0.10;;;;;;;17.38;75.59;100207.28;7361829;19;20014;-61
2023/10/11 03:26:48;;;;;;;0.10;0.10;;;;;;;17.37;76.14;100205.56;7365595;19;20021;-61
2023/10/11 03:29:17;;;;;;;0.10;0.10;;;;;;;17.38;76.72;100207.28;7361202;19;20485;-61
2023/10/11 03:31:43;;;;;;;0.10;0.10;;;;;;;17.34;76.33;100205.78;7362068;19;20119;-61
2023/10/11 03:34:11;;;;;;;0.10;0.10;;;;;;;17.37;76.26;100202.94;7357453;19;20034;-61
2023/10/11 03:36:51;;;;;;;0.10;0.10;;;;;;;17.41;76.48;100218.59;7362789;19;20035;-61
2023/10/11 03:39:27;;;;;;;0.10;0.10;;;;;;;17.38;75.83;100212.53;7365098;19;20021;-61
2023/10/11 03:42:06;;;;;;;0.10;0.10;;;;;;;17.28;76.37;100206.09;7363805;19;20018;-61
2023/10/11 03:44:35;;;;;;;0.10;0.10;;;;;;;17.43;76.33;100229.91;7362676;19;20010;-61
2023/10/11 03:47:08;;;;;;;0.10;0.10;;;;;;;17.45;76.36;100238.59;7375284;19;20022;-61
2023/10/11 03:52:19;;;;;;;0.10;0.10;;;;;;;17.46;75.78;100254.34;7364122;19;20766;-61
2023/10/11 03:57:36;;;;;;;0.10;0.10;;;;;;;17.47;76.77;100290.34;7368617;19;20122;-61
2023/10/11 04:02:46;;;;;;;0.10;0.10;;;;;;;17.48;77.01;100301.78;7362699;19;20006;-61
2023/10/11 04:05:12;;;;;;;0.10;0.10;;;;;;;17.46;76.79;100298.38;7364976;19;20006;-61
2023/10/11 04:07:40;;;;;;;0.10;0.10;;;;;;;17.45;77.63;100297.53;7360351;19;20474;-61
2023/10/11 04:10:09;;;;;;;0.13;0.13;;;;;;;17.39;77.28;100300.53;7371122;19;20370;-61
2023/10/11 04:12:40;;;;;;;0.10;0.10;;;;;;;17.36;77.52;100309.47;7371863;19;20018;-61
2023/10/11 04:15:24;;;;;;;0.10;0.10;;;;;;;17.32;77.62;100307.94;7366507;19;20006;-61
2023/10/11 04:17:50;;;;;;;0.03;0.03;;;;;;;17.22;77.82;100306.75;7359179;19;20025;-61
2023/10/11 04:20:30;;;;;;;0.00;0.00;;;;;;;17.24;78.36;100315.44;7364386;19;20371;-61
2023/10/11 04:23:10;;;;;;;0.10;0.10;;;;;;;17.22;78.16;100316.44;7353819;19;20101;-61
2023/10/11 04:25:37;;;;;;;0.10;0.10;;;;;;;17.19;78.26;100322.78;7360793;19;20007;-61
2023/10/11 04:28:05;;;;;;;0.00;0.00;;;;;;;17.17;78.39;100318.50;7364766;19;20091;-61
2023/10/11 04:30:44;;;;;;;0.10;0.10;;;;;;;17.15;78.68;100321.22;7359964;19;20025;-61
2023/10/11 04:33:19;;;;;;;0.10;0.10;;;;;;;17.13;78.23;100328.38;7363207;19;20033;-61
2023/10/11 04:35:46;;;;;;;0.00;0.00;;;;;;;17.06;78.92;100327.88;7362724;19;20107;-61
2023/10/11 04:38:12;;;;;;;0.10;0.10;;;;;;;17.06;78.93;100330.50;7364674;19;20015;-61
2023/10/11 04:40:41;;;;;;;0.10;0.10;;;;;;;16.83;79.06;100291.38;7369939;19;20011;-61
2023/10/11 04:43:25;;;;;;;0.03;0.03;;;;;;;17.02;78.98;100331.59;7362968;19;20013;-61
2023/10/11 04:45:54;;;;;;;0.10;0.10;;;;;;;17.03;78.82;100337.72;7360977;19;20007;-61
2023/10/11 04:48:36;;;;;;;0.10;0.10;;;;;;;16.91;78.75;100322.59;7332840;19;20051;-61
2023/10/11 04:51:08;;;;;;;0.10;0.10;;;;;;;17.00;78.77;100337.91;7360736;19;20003;-61
2023/10/11 04:53:45;;;;;;;0.00;0.00;;;;;;;16.98;78.82;100355.59;7363597;19;20341;-61
2023/10/11 04:58:59;;;;;;;0.10;0.10;;;;;;;16.92;78.50;100355.94;7360789;19;20014;-61
2023/10/11 05:01:39;;;;;;;0.10;0.10;;;;;;;16.86;78.62;100360.59;7369139;19;20022;-61
2023/10/11 05:04:09;;;;;;;0.10;0.10;;;;;;;16.84;78.39;100362.50;7366573;19;20085;-61
2023/10/11 05:06:40;;;;;;;0.10;0.10;;;;;;;16.79;79.01;100372.44;7375883;19;20861;-61
2023/10/11 05:09:40;;;;;;;0.10;0.10;;;;;;;16.76;78.67;100369.94;7362227;19;20031;-61
2023/10/11 05:12:07;;;;;;;0.00;0.00;;;;;;;16.69;79.04;100371.19;7369198;19;20011;-62
2023/10/11 05:14:39;;;;;;;0.10;0.10;;;;;;;16.72;79.11;100371.03;7374678;19;20831;-62
2023/10/11 05:22:49;;;;;;;0.10;0.10;;;;;;;16.63;79.03;100382.06;7366679;19;20354;-62
2023/10/11 05:30:44;;;;;;;0.10;0.10;;;;;;;16.58;79.46;100405.19;7370088;19;20045;-61
2023/10/11 05:33:31;;;;;;;0.10;0.10;;;;;;;16.57;79.40;100403.47;7354984;19;20842;-62
2023/10/11 05:36:14;;;;;;;0.10;0.10;;;;;;;16.53;79.57;100412.47;7369624;19;20026;-62
2023/10/11 05:52:19;;;;;;;0.10;0.10;;;;;;;16.31;79.38;100429.38;7368488;19;20702;-62
2023/10/11 05:54:49;;;;;;;0.10;0.10;;;;;;;16.29;79.41;100425.13;7366924;19;20014;-61
2023/10/11 05:57:15;;;;;;;0.10;0.10;;;;;;;16.25;79.91;100434.97;7368303;19;20026;-62
2023/10/11 05:59:43;;;;;;;0.10;0.10;;;;;;;16.23;80.04;100428.91;7362841;19;20006;-62
2023/10/11 06:02:18;;;;;;;0.10;0.10;;;;;;;16.22;80.29;100429.88;7366632;19;20010;-61
2023/10/11 06:04:45;;;;;;;0.10;0.10;;;;;;;16.19;79.81;100434.41;7368987;19;20022;-61
2023/10/11 06:07:13;;;;;;;0.00;0.00;;;;;;;16.18;80.10;100430.94;7362564;19;20006;-62
2023/10/11 06:09:43;;;;;;;0.10;0.10;;;;;;;16.17;79.96;100437.16;7359677;19;20715;-62
2023/10/11 06:12:22;;;;;;;0.10;0.10;;;;;;;16.15;80.36;100444.25;7366586;19;20026;-62
2023/10/11 06:14:50;;;;;;;0.05;0.05;;;;;;;16.14;80.38;100439.91;7362420;19;20511;-62
2023/10/11 06:17:16;;;;;;;0.00;0.00;;;;;;;16.13;79.98;100429.47;7365466;19;20014;-62
2023/10/11 06:19:50;;;;;;;0.00;0.00;;;;;;;16.11;79.89;100428.66;7365156;19;20045;-62
2023/10/11 06:22:16;;;;;;;0.10;0.10;;;;;;;16.07;79.57;100430.63;7368244;19;20014;-61
2023/10/11 06:24:44;;;;;;;0.10;0.10;;;;;;;16.04;79.73;100438.66;7366017;19;20372;-61
2023/10/11 06:29:53;;;;;;;0.10;0.10;;;;;;;15.92;79.67;100439.28;7370458;19;20021;-62
2023/10/11 06:32:25;;;;;;;0.00;0.00;;;;;;;15.88;79.03;100441.22;7368513;19;20375;-62
2023/10/11 06:34:51;;;;;;;0.00;0.00;;;;;;;15.67;79.94;100422.03;7362498;19;20025;-61
2023/10/11 06:37:19;;;;;;;0.08;0.08;;;;;;;15.77;79.95;100452.25;7366707;19;20015;-61
2023/10/11 06:42:22;;;;;;;0.10;0.10;;;;;;;15.69;79.92;100450.91;7363526;19;19998;-62
2023/10/11 06:44:53;;;;;;;0.10;0.10;;;;;;;15.64;79.95;100453.75;7362131;19;21330;-62
2023/10/11 06:47:20;;;;;;;0.10;0.10;;;;;;;15.51;80.30;100452.59;7362969;19;20471;-61
2023/10/11 06:49:53;;;;;;;;;;;;;;;15.61;77.54;100471.44;7364709;19;20367;-61
2023/10/11 06:52:20;;;;;;;0.10;0.10;;;;;;;15.49;79.67;100451.81;7360137;19;20695;-62
2023/10/11 06:54:47;;;;;;;0.10;0.10;;;;;;;15.50;80.28;100462.28;7370244;19;20010;-61
2023/10/11 06:57:17;;;;;;;;;;;;;;;15.50;78.04;100464.91;7359367;19;20499;-61
2023/10/11 06:59:43;;;;;;;0.10;0.10;;;;;;;15.45;79.84;100468.69;7360096;19;19911;-62
2023/10/11 07:02:17;;;;;;;0.00;0.00;;;;;;;15.44;80.35;100469.59;7363388;19;20010;-62
2023/10/11 07:04:50;;;;;;;0.00;0.00;;;;;;;15.42;80.04;100474.09;7366360;19;20081;-61
2023/10/11 07:07:19;;;;;;;0.00;0.00;;;;;;;15.42;80.23;100476.72;7363813;19;20010;-62
2023/10/11 07:09:56;;;;;;;0.10;0.10;;;;;;;15.30;80.50;100471.09;7355574;19;20091;-62
2023/10/11 07:12:40;;;;;;;0.10;0.10;;;;;;;15.42;79.80;100484.63;7365340;19;20030;-62
2023/10/11 07:15:09;;;;;;;0.00;0.00;;;;;;;15.40;80.28;100479.41;7364008;19;20022;-61
2023/10/11 07:17:35;;;;;;;0.10;0.10;;;;;;;15.39;80.38;100482.13;7362304;19;20007;-62
2023/10/11 07:20:01;;;;;;;0.10;0.10;;;;;;;15.40;80.61;100481.19;7362318;19;20018;-62
2023/10/11 07:22:26;;;;;;;0.10;0.10;;;;;;;15.37;80.56;100481.34;7361008;19;20006;-62
2023/10/11 07:24:55;;;;;;;0.10;0.10;;;;;;;15.41;80.19;100490.78;7364425;19;20027;-62
2023/10/11 07:27:37;;;;;;;0.10;0.10;;;;;;;15.40;80.57;100491.72;7358841;19;20055;-61
2023/10/11 07:30:06;;;;;;;0.10;0.10;;;;;;;15.35;80.51;100491.94;7358379;19;21048;-62
2023/10/11 07:32:36;;;;;;;0.10;0.10;;;;;;;15.37;80.36;100502.41;7361384;19;20093;-62
2023/10/11 07:35:05;;;;;;;0.00;0.00;;;;;;;15.31;80.22;100509.66;7361340;19;20696;-62
2023/10/11 07:37:31;;;;;;;0.08;0.08;;;;;;;15.39;80.26;100526.84;7352939;19;20010;-62
2023/10/11 07:40:06;;;;;;;0.10;0.10;;;;;;;15.39;80.42;100516.31;7361588;19;20102;-61
2023/10/11 07:42:37;;;;;;;0.10;0.10;;;;;;;15.37;80.26;100518.19;7362075;19;20041;-62
2023/10/11 07:45:07;;;;;;;0.10;0.10;;;;;;;15.36;80.37;100517.34;7350913;19;20094;-62
2023/10/11 07:47:34;;;;;;;0.10;0.10;;;;;;;15.28;80.53;100508.94;7366757;19;20007;-62
2023/10/11 07:49:59;;;;;;;0.10;0.10;;;;;;;15.35;80.25;100520.00;7367956;19;20014;-62
2023/10/11 07:52:25;;;;;;;0.10;0.10;;;;;;;15.34;80.28;100515.69;7352700;19;20605;-62
2023/10/11 07:54:52;;;;;;;0.10;0.10;;;;;;;15.35;80.68;100527.91;7337027;19;20739;-61
2023/10/11 07:57:19;;;;;;;0.10;0.10;;;;;;;15.35;80.26;100527.91;7360050;19;20010;-62
2023/10/11 07:59:47;;;;;;;;;;;;;;;15.39;79.00;100529.47;7367341;19;20060;-62
2023/10/11 08:02:29;;;;;;;;;;;;;;;15.39;78.17;100537.38;7359608;19;20908;-62
2023/10/11 08:04:57;;;;;;;0.10;0.10;;;;;;;15.34;79.79;100523.56;7361796;19;20331;-62
2023/10/11 08:07:22;;;;;;;;;;;;;;;15.39;78.45;100532.13;7365100;19;20651;-62
2023/10/11 08:09:52;;;;;;;0.00;0.00;;;;;;;15.33;79.85;100535.88;7361562;19;20329;-62
2023/10/11 08:12:21;;;;;;;0.03;0.03;;;;;;;15.29;80.32;100535.16;7360311;19;20006;-61
2023/10/11 08:14:47;;;;;;;0.10;0.10;;;;;;;15.30;80.42;100538.63;7366138;19;20022;-62
2023/10/11 08:17:17;;;;;;;0.00;0.00;;;;;;;15.24;80.10;100523.97;7365909;19;20540;-62
2023/10/11 08:19:44;;;;;;;0.05;0.05;;;;;;;15.28;80.63;100536.09;7365309;19;20007;-62
2023/10/11 08:22:14;;;;;;;0.10;0.10;;;;;;;15.30;80.26;100531.59;7361126;19;20007;-61
2023/10/11 08:24:49;;;;;;;0.10;0.10;;;;;;;15.28;80.80;100536.09;7363652;19;20518;-62
2023/10/11 08:27:27;;;;;;;0.10;0.10;;;;;;;15.30;80.42;100541.25;7361157;19;20023;-61
2023/10/11 08:30:08;;;;;;;0.10;0.10;;;;;;;15.31;80.36;100549.13;7358290;19;20011;-61
2023/10/11 08:32:37;;;;;;;0.05;0.05;;;;;;;15.32;80.30;100552.59;7361832;19;20051;-62
2023/10/11 08:35:16;;;;;;;0.10;0.10;;;;;;;15.34;80.75;100549.88;7362242;19;20009;-62
2023/10/11 08:37:41;;;;;;;0.10;0.10;;;;;;;15.21;80.63;100528.56;7350749;19;20010;-62
2023/10/11 08:43:06;;;;;;;0.10;0.10;;;;;;;15.36;80.66;100558.56;7361193;19;20014;-62
2023/10/11 08:45:49;;;;;;;0.08;0.08;;;;;;;15.41;79.72;100567.09;7368885;19;20018;-62
2023/10/11 08:48:15;;;;;;;0.08;0.08;;;;;;;15.38;80.45;100556.72;7370262;19;20018;-62
2023/10/11 08:50:51;;;;;;;0.10;0.10;;;;;;;15.39;80.55;100566.31;7362794;19;20010;-62
2023/10/11 08:53:20;;;;;;;0.10;0.10;;;;;;;15.42;80.31;100568.84;7370425;19;20010;-62
2023/10/11 08:55:54;;;;;;;0.05;0.05;;;;;;;15.41;80.52;100559.19;7361774;19;20067;-62
2023/10/11 08:58:29;;;;;;;0.10;0.10;;;;;;;15.44;80.52;100572.22;7371892;19;20503;-62
2023/10/11 09:00:55;;;;;;;0.10;0.10;;;;;;;15.46;80.57;100573.00;7367437;19;20010;-62
2023/10/11 09:03:41;;;;;;;0.00;0.00;;;;;;;15.47;80.60;100567.69;7369213;19;20400;-62
2023/10/11 09:06:23;;;;;;;0.10;0.10;;;;;;;15.32;80.13;100532.41;7362239;19;20017;-62
2023/10/11 09:08:51;;;;;;;0.10;0.10;;;;;;;15.51;80.30;100568.38;7366745;19;20015;-62
2023/10/11 09:11:28;;;;;;;0.10;0.10;;;;;;;15.49;80.17;100562.34;7371286;19;20037;-62
2023/10/11 09:14:12;;;;;;;;;;;;;;;15.57;79.02;100565.50;7369603;19;20799;-62
2023/10/11 09:16:41;;;;;;;0.10;0.10;;;;;;;15.50;79.95;100561.44;7362493;19;20576;-62
2023/10/11 09:19:10;;;;;;;0.10;0.10;;;;;;;15.52;79.79;100567.50;7369953;19;20070;-62
2023/10/11 09:21:37;;;;;;;0.00;0.00;;;;;;;15.52;80.26;100559.59;7372313;19;20388;-62
2023/10/11 09:24:20;;;;;;;0.08;0.08;;;;;;;15.49;80.17;100559.72;7369082;19;20018;-62
2023/10/11 09:27:09;;;;;;;0.00;0.00;;;;;;;15.53;80.01;100566.56;7368410;19;20450;-63
2023/10/11 09:29:38;;;;;;;0.10;0.10;;;;;;;15.50;79.98;100556.16;7367312;19;20014;-62
2023/10/11 09:32:05;;;;;;;0.10;0.10;;;;;;;15.48;80.10;100553.59;7371453;19;20038;-62
2023/10/11 09:34:31;;;;;;;0.10;0.10;;;;;;;15.51;79.77;100557.84;7368050;19;20010;-62
2023/10/11 09:36:56;;;;;;;0.10;0.10;;;;;;;15.49;80.21;100550.03;7371261;19;20558;-62
2023/10/11 09:39:22;;;;;;;0.10;0.10;;;;;;;15.49;79.99;100546.56;7359623;19;20018;-62
2023/10/11 09:41:53;;;;;;;0.10;0.10;;;;;;;15.47;80.34;100545.78;7368403;19;20355;-61
2023/10/11 09:44:28;;;;;;;0.10;0.10;;;;;;;15.51;80.23;100552.59;7370131;19;20010;-61
2023/10/11 09:46:57;;;;;;;0.00;0.00;;;;;;;15.49;79.97;100557.94;7364032;19;20011;-62
2023/10/11 09:49:25;;;;;;;0.10;0.10;;;;;;;15.49;80.33;100559.72;7364795;19;20123;-62
2023/10/11 09:51:52;;;;;;;0.10;0.10;;;;;;;15.48;79.87;100558.88;7367544;19;20009;-61
2023/10/11 09:54:18;;;;;;;0.00;0.00;;;;;;;15.50;79.84;100561.44;7367506;19;20011;-62
2023/10/11 09:56:51;;;;;;;0.00;0.00;;;;;;;15.51;79.65;100564.00;7361581;19;20097;-61
2023/10/11 09:59:38;;;;;;;0.10;0.10;;;;;;;15.53;79.53;100574.47;7370457;19;20522;-61
2023/10/11 10:02:14;;;;;;;0.10;0.10;;;;;;;15.46;79.41;100565.09;7364430;19;20015;-62
2023/10/11 10:04:51;;;;;;;0.10;0.10;;;;;;;15.52;79.75;100578.88;7369104;19;20010;-61
2023/10/11 10:07:25;;;;;;;0.00;0.00;;;;;;;15.51;79.63;100578.91;7363451;19;20010;-62
2023/10/11 10:09:59;;;;;;;0.10;0.10;;;;;;;15.36;79.52;100546.28;7362401;19;20011;-62
2023/10/11 10:12:26;;;;;;;0.10;0.10;;;;;;;15.48;79.72;100577.28;7369491;19;20471;-61
2023/10/11 10:15:20;;;;;;;0.10;0.10;;;;;;;15.51;79.62;100579.81;7361293;19;20030;-62
2023/10/11 10:18:00;;;;;;;0.10;0.10;;;;;;;15.52;79.66;100573.59;7367168;19;20708;-61
2023/10/11 10:20:34;;;;;;;0.10;0.10;;;;;;;15.51;79.57;100574.53;7366303;19;20024;-61
2023/10/11 10:23:15;;;;;;;0.10;0.10;;;;;;;15.53;79.48;100571.81;7365479;19;20034;-62
2023/10/11 10:25:46;;;;;;;0.05;0.05;;;;;;;15.50;80.11;100580.69;7370252;19;20502;-62
2023/10/11 10:28:47;;;;;;;0.10;0.10;;;;;;;15.55;78.90;100577.84;7360339;19;20019;-62
2023/10/11 10:31:17;;;;;;;0.10;0.10;;;;;;;15.53;79.48;100577.09;7363925;19;20010;-61
2023/10/11 10:33:43;;;;;;;0.10;0.10;;;;;;;15.51;79.70;100574.53;7367904;19;21163;-62
2023/10/11 10:36:18;;;;;;;0.00;0.00;;;;;;;15.53;79.63;100572.69;7363348;19;20006;-61
2023/10/11 10:41:32;;;;;;;0.10;0.10;;;;;;;15.52;79.55;100567.50;7363611;19;20703;-61
2023/10/11 10:44:02;;;;;;;0.10;0.10;;;;;;;15.54;79.71;100579.66;7364108;19;20013;-61
2023/10/11 10:46:27;;;;;;;0.10;0.10;;;;;;;15.52;79.89;100575.38;7367291;19;20010;-62
2023/10/11 10:48:55;;;;;;;0.10;0.10;;;;;;;15.53;79.95;100571.81;7365056;19;20010;-61
2023/10/11 10:51:20;;;;;;;;;;;;;;;15.58;78.58;100569.84;7367089;19;20423;-62
2023/10/11 10:53:50;;;;;;;0.10;0.10;;;;;;;15.54;79.28;100568.25;7367668;19;19919;-61
2023/10/11 10:56:26;;;;;;;0.10;0.10;;;;;;;15.40;79.31;100533.81;7362026;19;20014;-61
2023/10/11 10:59:14;;;;;;;0.10;0.10;;;;;;;15.52;78.89;100549.06;7365931;19;20010;-62
2023/10/11 11:01:44;;;;;;;0.00;0.00;;;;;;;15.54;79.67;100563.84;7365023;19;20035;-62
2023/10/11 11:04:20;;;;;;;0.03;0.03;;;;;;;15.49;79.76;100563.19;7358859;19;20022;-61
2023/10/11 11:06:48;;;;;;;0.00;0.00;;;;;;;15.56;79.86;100566.41;7362748;19;20018;-62
2023/10/11 11:09:19;;;;;;;0.10;0.10;;;;;;;15.58;79.46;100569.84;7367281;19;20478;-61
2023/10/11 11:11:46;;;;;;;0.10;0.10;;;;;;;15.58;79.49;100568.06;7365785;19;20031;-62
2023/10/11 11:14:13;;;;;;;0.08;0.08;;;;;;;15.56;79.79;100563.78;7363723;19;20018;-62
2023/10/11 11:16:40;;;;;;;0.10;0.10;;;;;;;15.60;79.43;100567.97;7362505;19;20089;-61
2023/10/11 11:19:17;;;;;;;0.10;0.10;;;;;;;15.62;79.25;100566.16;7367628;19;20021;-61
2023/10/11 11:21:46;;;;;;;0.10;0.10;;;;;;;15.64;79.70;100569.59;7345742;19;20019;-62
2023/10/11 11:24:27;;;;;;;0.10;0.10;;;;;;;15.65;79.31;100573.91;7365349;19;20011;-61
2023/10/11 11:26:56;;;;;;;0.10;0.10;;;;;;;15.63;79.56;100573.16;7367093;19;20572;-61
2023/10/11 11:29:33;;;;;;;0.10;0.10;;;;;;;15.69;79.18;100574.66;7346628;19;20014;-61
2023/10/11 11:32:14;;;;;;;0.10;0.10;;;;;;;15.66;79.82;100570.38;7372779;19;20014;-61
2023/10/11 11:35:00;;;;;;;0.10;0.10;;;;;;;15.72;79.08;100564.84;7369321;19;20022;-61
2023/10/11 11:37:29;;;;;;;0.10;0.10;;;;;;;15.69;79.68;100572.88;7368082;19;20010;-61
2023/10/11 11:40:17;;;;;;;0.10;0.10;;;;;;;15.71;79.66;100565.75;7366446;19;20518;-61
2023/10/11 11:42:47;;;;;;;0.10;0.10;;;;;;;15.45;79.22;100527.41;7358192;19;19998;-61
2023/10/11 11:45:16;;;;;;;0.00;0.00;;;;;;;15.66;79.32;100573.03;7364774;19;20037;-61
2023/10/11 11:47:55;;;;;;;0.10;0.10;;;;;;;15.62;79.50;100574.03;7362151;19;20017;-61
2023/10/11 11:50:26;;;;;;;0.10;0.10;;;;;;;15.73;79.49;100590.22;7366845;19;20010;-62
2023/10/11 11:52:51;;;;;;;0.08;0.08;;;;;;;15.73;79.20;100595.50;7363632;19;20881;-61
2023/10/11 11:55:22;;;;;;;0.08;0.08;;;;;;;15.75;79.45;100596.25;7365794;19;20070;-61
2023/10/11 11:57:48;;;;;;;0.10;0.10;;;;;;;15.74;79.21;100589.28;7364168;19;20652;-61
2023/10/11 12:01:08;;;;;;;0.10;0.10;;;;;;;15.62;79.52;100555.63;7362033;19;20018;-61
2023/10/11 12:03:08;;;;;;;0.08;0.08;;;;;;;15.77;79.16;100597.06;7358453;19;20010;-61
2023/10/11 12:05:40;;;;;;;0.10;0.10;;;;;;;15.78;79.33;100592.66;7358752;19;20737;-61
2023/10/11 12:08:08;;;;;;;0.10;0.10;;;;;;;15.80;79.07;100594.28;7369153;19;20338;-61
2023/10/11 12:10:35;;;;;;;0.10;0.10;;;;;;;15.80;79.40;100596.91;7363637;19;20011;-61
2023/10/11 12:13:07;;;;;;;0.07;0.07;;;;;;;15.81;79.50;100597.75;7359057;19;20022;-61
2023/10/11 12:15:34;;;;;;;0.10;0.10;;;;;;;15.80;79.23;100586.38;7358464;19;20016;-61
2023/10/11 12:18:00;;;;;;;0.10;0.10;;;;;;;15.83;79.16;100586.25;7364981;19;20010;-61
2023/10/11 12:20:36;;;;;;;0.10;0.10;;;;;;;15.79;79.20;100584.69;7360909;19;20540;-61
2023/10/11 12:23:11;;;;;;;0.10;0.10;;;;;;;15.86;79.06;100585.22;7363670;19;20014;-61
2023/10/11 12:25:37;;;;;;;0.00;0.00;;;;;;;15.88;79.32;100593.09;7358699;19;20010;-61
2023/10/11 12:28:08;;;;;;;0.10;0.10;;;;;;;15.89;79.27;100590.38;7362282;19;20021;-61
2023/10/11 12:30:33;;;;;;;0.10;0.10;;;;;;;15.90;79.23;100580.69;7358074;19;20038;-62
2023/10/11 12:33:06;;;;;;;0.10;0.10;;;;;;;15.90;79.03;100581.53;7354737;19;20014;-61
2023/10/11 12:35:41;;;;;;;0.10;0.10;;;;;;;15.92;79.22;100579.72;7362450;19;20014;-62